createdAt,value
2019-04-30T00:02:38.415Z,102339.09
2019-04-30T00:05:19.639Z,102335.29
2019-04-30T00:08:05.869Z,102317.99
2019-04-30T00:10:50.308Z,102300.95
2019-04-30T00:13:35.870Z,102313.27
2019-04-30T00:16:20.068Z,102287.53
2019-04-30T00:19:06.039Z,102287.62
2019-04-30T00:21:56.942Z,102294.37
2019-04-30T00:24:35.626Z,102280.09
2019-04-30T00:27:21.110Z,102272.61
2019-04-30T00:30:08.946Z,102273.69
2019-04-30T00:32:57.632Z,102274.64
2019-04-30T00:35:41.893Z,102275.69
2019-04-30T00:38:29.449Z,102272.75
2019-04-30T00:41:12.061Z,102271.28
2019-04-30T00:43:55.933Z,102271.06
2019-04-30T00:46:39.762Z,102265.58
2019-04-30T00:49:26.491Z,102271.73
2019-04-30T00:52:09.554Z,102276.13
2019-04-30T00:54:55.263Z,102288.44
2019-04-30T00:57:43.830Z,102292.61
2019-04-30T01:00:29.628Z,102286.12
2019-04-30T01:06:17.214Z,102294.67
2019-04-30T01:09:05.542Z,102278.20
2019-04-30T01:11:57.133Z,102272.08
2019-04-30T01:14:41.097Z,102285.98
2019-04-30T01:17:25.371Z,102267.06
2019-04-30T01:20:09.478Z,102268.55
2019-04-30T01:22:53.984Z,102291.89
2019-04-30T01:25:38.875Z,102287.59
2019-04-30T01:28:24.491Z,102260.94
2019-04-30T01:31:09.020Z,102268.93
2019-04-30T01:33:53.247Z,102266.30
2019-04-30T01:36:39.270Z,102285.53
2019-04-30T01:39:27.663Z,102257.98
2019-04-30T01:42:11.328Z,102279.69
2019-04-30T01:44:59.469Z,102276.58
2019-04-30T01:47:44.048Z,102266.53
2019-04-30T01:50:29.233Z,102257.63
2019-04-30T01:53:13.440Z,102258.02
2019-04-30T01:56:19.079Z,102265.28
2019-04-30T02:02:08.461Z,102281.92
2019-04-30T02:04:52.267Z,102285.66
2019-04-30T02:07:36.528Z,102254.42
2019-04-30T02:10:22.568Z,102265.91
2019-04-30T02:13:11.114Z,102278.61
2019-04-30T02:15:59.367Z,102259.02
2019-04-30T02:18:49.030Z,102255.28
2019-04-30T02:21:58.803Z,102287.23
2019-04-30T02:24:42.639Z,102259.16
2019-04-30T02:27:26.878Z,102266.88
2019-04-30T02:30:11.393Z,102264.56
2019-04-30T02:32:55.925Z,102269.27
2019-04-30T02:36:00.418Z,102286.21
2019-04-30T02:38:49.398Z,102241.88
2019-04-30T02:41:34.939Z,102269.25
2019-04-30T02:44:19.651Z,102239.09
2019-04-30T02:47:03.417Z,102260.37
2019-04-30T02:49:53.409Z,102245.98
2019-04-30T02:52:50.501Z,102235.99
2019-04-30T03:01:41.124Z,102252.78
2019-04-30T03:04:25.299Z,102227.32
2019-04-30T03:07:13.234Z,102245.88
2019-04-30T03:09:59.582Z,102237.55
2019-04-30T03:12:42.677Z,102238.50
2019-04-30T03:15:29.599Z,102260.70
2019-04-30T03:21:36.063Z,102241.77
2019-04-30T03:24:20.135Z,102252.73
2019-04-30T03:27:05.214Z,102268.38
2019-04-30T03:29:53.867Z,102263.27
2019-04-30T03:32:42.589Z,102243.39
2019-04-30T03:35:23.949Z,102245.38
2019-04-30T03:38:09.717Z,102266.22
2019-04-30T03:40:54.611Z,102270.89
2019-04-30T03:43:42.579Z,102244.47
2019-04-30T03:46:29.638Z,102261.40
2019-04-30T03:49:19.965Z,102232.20
2019-04-30T03:52:15.991Z,102243.22
2019-04-30T03:55:03.034Z,102269.14
2019-04-30T03:57:46.384Z,102246.55
2019-04-30T04:03:42.295Z,102248.28
2019-04-30T04:09:45.610Z,102248.03
2019-04-30T04:12:44.160Z,102254.06
2019-04-30T04:15:29.944Z,102274.15
2019-04-30T04:18:14.717Z,102279.05
2019-04-30T04:21:12.147Z,102278.67
2019-04-30T04:24:10.574Z,102252.12
2019-04-30T04:26:54.983Z,102256.25
2019-04-30T04:29:40.386Z,102250.11
2019-04-30T04:32:24.999Z,102253.89
2019-04-30T04:35:12.219Z,102248.69
2019-04-30T04:37:54.468Z,102245.23
2019-04-30T04:40:40.076Z,102251.77
2019-04-30T04:43:25.034Z,102265.59
2019-04-30T04:46:09.318Z,102246.66
2019-04-30T04:48:53.354Z,102242.92
2019-04-30T04:51:41.820Z,102245.68
2019-04-30T04:54:23.479Z,102251.81
2019-04-30T04:57:14.870Z,102243.17
2019-04-30T04:59:53.280Z,102244.59
2019-04-30T05:05:39.939Z,102268.89
2019-04-30T05:08:25.057Z,102269.89
2019-04-30T05:11:13.282Z,102268.77
2019-04-30T05:13:58.861Z,102254.61
2019-04-30T05:16:42.689Z,102273.39
2019-04-30T05:19:28.496Z,102256.89
2019-04-30T05:22:12.285Z,102286.80
2019-04-30T05:24:55.817Z,102266.14
2019-04-30T05:27:40.224Z,102289.38
2019-04-30T05:30:24.274Z,102269.47
2019-04-30T05:33:08.853Z,102275.11
2019-04-30T05:35:52.901Z,102291.46
2019-04-30T05:38:39.224Z,102288.48
2019-04-30T05:41:23.468Z,102271.70
2019-04-30T05:43:55.983Z,102286.02
2019-04-30T05:46:39.847Z,102286.91
2019-04-30T05:49:24.489Z,102259.12
2019-04-30T05:52:09.451Z,102284.48
2019-04-30T05:54:53.835Z,102281.14
2019-04-30T05:57:47.165Z,102273.23
2019-04-30T06:00:23.980Z,102269.03
2019-04-30T06:03:09.473Z,102288.50
2019-04-30T06:05:53.416Z,102262.27
2019-04-30T06:11:43.567Z,102258.70
2019-04-30T06:14:45.893Z,102258.61
2019-04-30T06:17:29.766Z,102285.03
2019-04-30T06:20:18.216Z,102283.92
2019-04-30T06:22:59.823Z,102256.75
2019-04-30T06:25:56.315Z,102261.27
2019-04-30T06:28:31.942Z,102263.81
2019-04-30T06:31:16.211Z,102268.08
2019-04-30T06:34:00.316Z,102261.79
2019-04-30T06:36:51.120Z,102261.44
2019-04-30T06:39:30.381Z,102277.22
2019-04-30T06:42:14.241Z,102257.95
2019-04-30T06:44:59.131Z,102256.19
2019-04-30T06:47:44.097Z,102251.41
2019-04-30T06:50:29.290Z,102268.69
2019-04-30T06:53:13.650Z,102259.23
2019-04-30T06:55:59.027Z,102264.88
2019-04-30T06:58:43.065Z,102281.73
2019-04-30T07:01:29.061Z,102266.57
2019-04-30T07:04:13.048Z,102258.95
2019-04-30T07:06:59.016Z,102292.16
2019-04-30T07:10:03.367Z,102265.01
2019-04-30T07:13:06.447Z,102260.23
2019-04-30T07:15:39.460Z,102276.67
2019-04-30T07:18:39.935Z,102254.78
2019-04-30T07:21:23.801Z,102250.82
2019-04-30T07:24:20.766Z,102267.17
2019-04-30T07:27:23.724Z,102274.56
2019-04-30T07:30:06.638Z,102273.55
2019-04-30T07:32:51.190Z,102249.39
2019-04-30T07:35:35.781Z,102246.28
2019-04-30T07:38:20.193Z,102263.19
2019-04-30T07:40:52.543Z,102269.53
2019-04-30T07:43:36.347Z,102243.38
2019-04-30T07:46:20.351Z,102241.43
2019-04-30T07:49:05.086Z,102238.48
2019-04-30T07:51:51.828Z,102243.34
2019-04-30T07:54:39.586Z,102242.38
2019-04-30T07:57:24.267Z,102262.34
2019-04-30T08:00:09.704Z,102265.98
2019-04-30T08:06:02.206Z,102255.62
2019-04-30T08:08:47.885Z,102244.17
2019-04-30T08:11:34.405Z,102261.81
2019-04-30T08:14:21.133Z,102243.08
2019-04-30T08:17:05.785Z,102263.73
2019-04-30T08:19:50.601Z,102249.15
2019-04-30T08:22:33.438Z,102247.79
2019-04-30T08:25:21.963Z,102272.28
2019-04-30T08:28:06.379Z,102273.67
2019-04-30T08:30:50.843Z,102274.44
2019-04-30T08:36:20.793Z,102252.65
2019-04-30T08:39:05.637Z,102265.16
2019-04-30T08:41:49.941Z,102251.01
2019-04-30T08:44:33.518Z,102249.53
2019-04-30T08:47:21.213Z,102248.88
2019-04-30T08:50:05.273Z,102268.00
2019-04-30T08:52:51.013Z,102259.77
2019-04-30T08:55:34.758Z,102269.86
2019-04-30T08:58:20.591Z,102246.00
2019-04-30T09:01:05.075Z,102244.80
2019-04-30T09:03:50.936Z,102238.27
2019-04-30T09:06:34.023Z,102237.99
2019-04-30T09:09:21.712Z,102262.65
2019-04-30T09:12:06.411Z,102240.35
2019-04-30T09:14:50.925Z,102257.03
2019-04-30T09:17:35.460Z,102230.73
2019-04-30T09:20:21.614Z,102238.16
2019-04-30T09:23:05.814Z,102224.18
2019-04-30T09:25:49.891Z,102227.98
2019-04-30T09:28:22.268Z,102238.74
2019-04-30T09:31:08.625Z,102235.36
2019-04-30T09:33:52.842Z,102217.62
2019-04-30T09:36:39.219Z,102232.92
2019-04-30T09:39:23.422Z,102215.70
2019-04-30T09:42:09.144Z,102221.53
2019-04-30T09:44:54.930Z,102217.42
2019-04-30T09:47:41.893Z,102219.52
2019-04-30T09:50:25.261Z,102218.44
2019-04-30T09:53:00.900Z,102236.38
2019-04-30T09:55:57.260Z,102230.17
2019-04-30T09:58:44.980Z,102233.80
2019-04-30T10:01:32.540Z,102213.74
2019-04-30T10:04:16.775Z,102211.89
2019-04-30T10:07:01.426Z,102226.11
2019-04-30T10:09:33.761Z,102214.17
2019-04-30T10:12:19.585Z,102193.58
2019-04-30T10:15:04.558Z,102201.45
2019-04-30T10:17:48.850Z,102177.05
2019-04-30T10:20:42.168Z,102180.70
2019-04-30T10:23:28.065Z,102175.21
2019-04-30T10:26:12.678Z,102184.79
2019-04-30T10:28:56.796Z,102181.62
2019-04-30T10:31:43.082Z,102159.41
2019-04-30T10:34:27.331Z,102159.33
2019-04-30T10:37:02.919Z,102173.92
2019-04-30T10:40:00.420Z,102169.08
2019-04-30T10:42:45.314Z,102168.16
2019-04-30T10:45:29.308Z,102146.01
2019-04-30T10:48:13.785Z,102169.00
2019-04-30T10:50:59.242Z,102159.23
2019-04-30T10:53:44.063Z,102170.46
2019-04-30T10:56:29.145Z,102166.09
2019-04-30T10:59:14.723Z,102170.78
2019-04-30T11:01:59.248Z,102145.59
2019-04-30T11:04:43.922Z,102162.78
2019-04-30T11:07:28.872Z,102144.98
2019-04-30T11:10:13.235Z,102141.59
2019-04-30T11:12:57.145Z,102134.77
2019-04-30T11:15:44.450Z,102157.80
2019-04-30T11:18:28.848Z,102150.78
2019-04-30T11:21:02.376Z,102146.94
2019-04-30T11:23:46.921Z,102140.34
2019-04-30T11:26:32.504Z,102124.71
2019-04-30T11:29:18.940Z,102130.44
2019-04-30T11:35:07.117Z,102113.17
2019-04-30T11:37:51.344Z,102112.20
2019-04-30T11:40:37.948Z,102107.02
2019-04-30T11:43:22.702Z,102100.88
2019-04-30T11:46:30.259Z,102101.53
2019-04-30T11:49:03.030Z,102111.35
2019-04-30T11:51:47.510Z,102091.52
2019-04-30T11:54:32.026Z,102081.13
2019-04-30T11:57:16.281Z,102081.11
2019-04-30T12:03:02.297Z,102083.34
2019-04-30T12:05:45.986Z,102078.22
2019-04-30T12:08:34.538Z,102079.92
2019-04-30T12:11:27.444Z,102087.08
2019-04-30T12:14:13.887Z,102104.87
2019-04-30T12:16:58.328Z,102103.68
2019-04-30T12:19:42.651Z,102080.61
2019-04-30T12:22:29.476Z,102082.08
2019-04-30T12:25:13.624Z,102078.73
2019-04-30T12:27:59.605Z,102078.33
2019-04-30T12:30:31.996Z,102091.02
2019-04-30T12:33:04.801Z,102096.16
2019-04-30T12:35:51.250Z,102092.14
2019-04-30T12:38:35.341Z,102080.30
2019-04-30T12:41:07.686Z,102088.02
2019-04-30T12:43:52.385Z,102088.28
2019-04-30T12:46:38.644Z,102070.69
2019-04-30T12:49:22.763Z,102089.66
2019-04-30T12:58:20.714Z,102084.45
2019-04-30T13:01:18.597Z,102067.95
2019-04-30T13:04:02.651Z,102066.38
2019-04-30T13:06:36.428Z,102079.09
2019-04-30T13:09:35.312Z,102063.66
2019-04-30T13:12:20.322Z,102056.98
2019-04-30T13:15:07.076Z,102064.83
2019-04-30T13:17:51.251Z,102048.64
2019-04-30T13:20:35.537Z,102057.59
2019-04-30T13:23:19.784Z,102075.56
2019-04-30T13:26:03.646Z,102069.07
2019-04-30T13:28:55.352Z,102060.61
2019-04-30T13:31:40.258Z,102061.51
2019-04-30T13:34:45.768Z,102042.02
2019-04-30T13:44:02.225Z,102028.76
2019-04-30T13:46:46.872Z,102038.53
2019-04-30T13:49:30.634Z,102049.19
2019-04-30T13:52:15.751Z,102044.91
2019-04-30T13:55:00.025Z,102049.91
2019-04-30T13:57:44.647Z,102048.95
2019-04-30T14:00:29.987Z,102032.13
2019-04-30T14:06:21.964Z,102046.37
2019-04-30T14:12:08.130Z,102045.58
2019-04-30T14:14:52.251Z,102031.70
2019-04-30T14:17:35.837Z,102021.73
2019-04-30T14:20:19.824Z,102043.81
2019-04-30T14:23:03.735Z,102017.66
2019-04-30T14:25:56.376Z,102041.30
2019-04-30T14:28:35.815Z,102026.71
2019-04-30T14:31:20.833Z,102042.69
2019-04-30T14:34:07.034Z,102019.90
2019-04-30T14:36:51.571Z,102012.31
2019-04-30T14:39:35.435Z,102028.02
2019-04-30T14:42:22.466Z,102016.73
2019-04-30T14:51:17.256Z,102013.02
2019-04-30T14:54:20.409Z,102012.28
2019-04-30T15:00:29.414Z,102027.42
2019-04-30T15:03:15.494Z,102002.45
2019-04-30T15:05:59.744Z,102013.15
2019-04-30T15:08:44.754Z,102028.09
2019-04-30T15:11:29.140Z,102007.11
2019-04-30T15:14:13.190Z,102004.94
2019-04-30T15:16:58.138Z,102001.67
2019-04-30T15:19:42.188Z,101999.17
2019-04-30T15:22:30.203Z,102023.94
2019-04-30T15:25:14.250Z,101999.45
2019-04-30T15:27:59.018Z,102004.02
2019-04-30T15:30:44.209Z,102007.89
2019-04-30T15:34:01.686Z,102017.27
2019-04-30T15:36:34.584Z,102000.06
2019-04-30T15:39:39.272Z,101996.59
2019-04-30T15:42:44.322Z,102025.53
2019-04-30T15:45:29.188Z,102002.85
2019-04-30T15:48:13.734Z,101993.41
2019-04-30T15:50:59.039Z,102015.38
2019-04-30T15:53:43.525Z,102016.61
2019-04-30T15:56:35.339Z,102019.95
2019-04-30T15:59:33.121Z,102022.45
2019-04-30T16:11:39.420Z,102001.49
2019-04-30T16:14:36.216Z,102001.27
2019-04-30T16:17:22.289Z,102001.69
2019-04-30T16:20:07.009Z,102003.27
2019-04-30T16:22:51.304Z,102002.53
2019-04-30T16:25:35.274Z,101996.63
2019-04-30T16:28:20.941Z,102001.38
2019-04-30T16:31:05.373Z,102023.31
2019-04-30T16:33:49.795Z,102029.47
2019-04-30T16:36:33.759Z,102004.36
2019-04-30T16:39:18.686Z,102000.40
2019-04-30T16:42:03.290Z,101994.21
2019-04-30T16:44:47.797Z,102000.61
2019-04-30T16:47:31.728Z,102018.73
2019-04-30T16:50:15.502Z,101994.12
2019-04-30T16:52:59.846Z,101991.92
2019-04-30T16:55:44.959Z,101990.23
2019-04-30T16:58:49.426Z,101992.69
2019-04-30T17:01:36.171Z,101995.06
2019-04-30T17:04:39.282Z,102001.50
2019-04-30T17:07:43.766Z,101999.82
2019-04-30T17:16:35.458Z,102003.30
2019-04-30T17:19:19.158Z,102021.48
2019-04-30T17:22:03.415Z,101998.44
2019-04-30T17:24:49.438Z,102000.25
2019-04-30T17:27:33.592Z,102009.63
2019-04-30T17:34:23.440Z,102005.70
2019-04-30T17:42:55.132Z,102019.97
2019-04-30T17:49:18.978Z,102000.98
2019-04-30T17:58:51.233Z,102019.58
2019-04-30T18:14:39.604Z,102008.80
2019-04-30T18:17:25.933Z,102028.86
2019-04-30T18:20:35.609Z,102025.89
2019-04-30T18:33:43.276Z,102002.36
2019-04-30T18:36:27.238Z,102003.57
2019-04-30T18:39:11.674Z,102024.74
2019-04-30T18:41:57.568Z,102029.72
2019-04-30T18:44:42.321Z,102028.50
2019-04-30T18:47:16.170Z,102021.69
2019-04-30T18:50:00.749Z,102006.02
2019-04-30T18:52:45.632Z,102006.13
2019-04-30T18:55:29.203Z,102027.05
2019-04-30T18:58:13.224Z,102003.37
2019-04-30T19:00:59.308Z,102023.81
2019-04-30T19:03:44.221Z,102003.81
2019-04-30T19:06:29.524Z,102007.66
2019-04-30T19:12:46.657Z,102005.84
2019-04-30T19:16:18.812Z,102006.91
2019-04-30T19:22:00.051Z,102030.78
2019-04-30T19:24:55.545Z,102027.02
2019-04-30T19:27:20.452Z,102025.70
2019-04-30T19:30:05.860Z,102030.80
2019-04-30T19:32:50.671Z,102003.19
2019-04-30T19:35:35.330Z,102021.50
2019-04-30T19:38:20.109Z,101997.42
2019-04-30T19:41:04.092Z,102021.91
2019-04-30T19:43:50.067Z,102004.52
2019-04-30T19:46:34.813Z,102028.22
2019-04-30T19:49:19.217Z,102012.20
2019-04-30T19:52:08.576Z,102024.27
2019-04-30T19:54:49.439Z,102027.90
2019-04-30T19:57:33.646Z,102003.23
2019-04-30T20:00:45.651Z,102028.41
2019-04-30T20:03:31.633Z,102031.98
2019-04-30T20:06:15.647Z,102029.86
2019-04-30T20:09:00.775Z,102028.41
2019-04-30T20:11:49.289Z,102034.92
2019-04-30T20:14:33.307Z,102001.46
2019-04-30T20:17:19.477Z,102024.62
2019-04-30T20:20:04.731Z,102003.55
2019-04-30T20:22:48.729Z,102003.70
2019-04-30T20:25:33.094Z,102002.39
2019-04-30T20:28:17.288Z,102003.22
2019-04-30T20:31:01.873Z,101994.92
2019-04-30T20:33:46.307Z,102015.81
2019-04-30T20:36:32.838Z,101995.03
2019-04-30T20:42:06.405Z,102015.13
2019-04-30T20:44:51.423Z,102014.97
2019-04-30T20:47:35.692Z,102010.57
2019-04-30T20:50:20.648Z,101986.88
2019-04-30T20:53:05.172Z,101998.95
2019-04-30T20:55:49.549Z,101984.89
2019-04-30T20:58:34.011Z,102009.91
2019-04-30T21:01:19.329Z,101983.77
2019-04-30T21:04:03.533Z,101980.03
2019-04-30T21:06:49.631Z,101979.36
2019-04-30T21:09:35.910Z,101985.87
2019-04-30T21:12:09.004Z,102002.88
2019-04-30T21:15:06.528Z,101983.77
2019-04-30T21:17:53.574Z,101987.86
2019-04-30T21:20:38.932Z,101997.52
2019-04-30T21:23:24.681Z,101999.30
2019-04-30T21:26:10.406Z,101976.24
2019-04-30T21:28:56.765Z,101994.88
2019-04-30T21:32:05.148Z,101974.27
2019-04-30T21:35:21.081Z,101994.88
2019-04-30T21:38:09.462Z,101967.45
2019-04-30T21:40:53.854Z,101992.61
2019-04-30T21:43:37.493Z,101967.30
2019-04-30T21:46:09.800Z,101990.00
2019-04-30T21:49:10.821Z,101968.39
2019-04-30T21:51:55.070Z,101958.77
2019-04-30T21:54:39.749Z,101972.00
2019-04-30T21:57:23.897Z,101977.89
2019-04-30T22:00:08.935Z,101981.14
2019-04-30T22:02:55.095Z,101977.71
2019-04-30T22:05:41.471Z,101951.87
2019-04-30T22:08:28.784Z,101974.30
2019-04-30T22:11:13.480Z,101941.16
2019-04-30T22:13:57.845Z,101971.83
2019-04-30T22:16:41.702Z,101960.91
2019-04-30T22:19:25.728Z,101967.12
2019-04-30T22:22:10.554Z,101950.47
2019-04-30T22:24:55.664Z,101964.98
2019-04-30T22:27:28.004Z,101963.34
2019-04-30T22:30:11.841Z,101935.25
2019-04-30T22:32:56.363Z,101932.47
2019-04-30T22:39:02.701Z,101956.14
2019-04-30T22:48:21.647Z,101948.31
2019-04-30T22:51:05.780Z,101919.44
2019-04-30T22:53:51.171Z,101936.57
2019-04-30T22:56:38.215Z,101940.64
2019-04-30T22:59:23.146Z,101917.30
2019-04-30T23:05:15.813Z,101915.64
2019-04-30T23:08:00.166Z,101936.06
2019-04-30T23:10:45.046Z,101908.83
2019-04-30T23:13:29.070Z,101910.61
2019-04-30T23:16:13.979Z,101901.31
2019-04-30T23:18:58.162Z,101904.23
2019-04-30T23:21:41.867Z,101902.77
2019-04-30T23:24:26.281Z,101919.10
2019-04-30T23:27:10.491Z,101899.64
2019-04-30T23:30:03.041Z,101922.03
2019-04-30T23:32:41.424Z,101896.72
2019-04-30T23:35:25.424Z,101890.05
2019-04-30T23:38:09.217Z,101912.91
2019-04-30T23:40:54.355Z,101896.91
2019-04-30T23:43:38.642Z,101879.77
2019-04-30T23:46:23.114Z,101885.97
2019-04-30T23:49:09.676Z,101905.23
2019-04-30T23:51:54.230Z,101904.42
2019-04-30T23:54:37.991Z,101877.48
2019-04-30T23:57:22.516Z,101902.15
